sensor_id;sensor_type;location;lat;lon;timestamp;P1;durP1;ratioP1;P2;durP2;ratioP2
34876;SDS011;21086;44.780;17.194;2023-06-22T00:00:21;8.48;;;4.97;;
34876;SDS011;21086;44.780;17.194;2023-06-22T00:02:49;7.82;;;5.72;;
34876;SDS011;21086;44.780;17.194;2023-06-22T00:05:16;8.45;;;5.30;;
34876;SDS011;21086;44.780;17.194;2023-06-22T00:07:43;10.38;;;5.53;;
34876;SDS011;21086;44.780;17.194;2023-06-22T00:10:10;5.68;;;5.07;;
34876;SDS011;21086;44.780;17.194;2023-06-22T00:12:37;5.68;;;5.07;;
34876;SDS011;21086;44.780;17.194;2023-06-22T00:15:04;7.60;;;5.15;;
34876;SDS011;21086;44.780;17.194;2023-06-22T00:17:32;8.20;;;5.50;;
34876;SDS011;21086;44.780;17.194;2023-06-22T00:19:59;6.40;;;5.20;;
34876;SDS011;21086;44.780;17.194;2023-06-22T00:22:26;8.52;;;5.40;;
34876;SDS011;21086;44.780;17.194;2023-06-22T00:24:56;8.13;;;5.55;;
34876;SDS011;21086;44.780;17.194;2023-06-22T00:27:24;7.40;;;4.93;;
34876;SDS011;21086;44.780;17.194;2023-06-22T00:29:51;6.75;;;5.13;;
34876;SDS011;21086;44.780;17.194;2023-06-22T00:32:18;8.15;;;4.97;;
34876;SDS011;21086;44.780;17.194;2023-06-22T00:34:45;7.05;;;4.55;;
34876;SDS011;21086;44.780;17.194;2023-06-22T00:37:12;6.47;;;4.93;;
34876;SDS011;21086;44.780;17.194;2023-06-22T00:39:39;7.72;;;4.93;;
34876;SDS011;21086;44.780;17.194;2023-06-22T00:42:08;7.97;;;5.18;;
34876;SDS011;21086;44.780;17.194;2023-06-22T00:44:35;8.27;;;4.68;;
34876;SDS011;21086;44.780;17.194;2023-06-22T00:47:03;6.93;;;4.78;;
34876;SDS011;21086;44.780;17.194;2023-06-22T00:49:31;8.35;;;5.07;;
34876;SDS011;21086;44.780;17.194;2023-06-22T00:51:58;7.80;;;4.70;;
34876;SDS011;21086;44.780;17.194;2023-06-22T00:54:25;6.13;;;4.82;;
34876;SDS011;21086;44.780;17.194;2023-06-22T00:56:55;11.30;;;4.82;;
34876;SDS011;21086;44.780;17.194;2023-06-22T00:59:24;5.38;;;4.60;;
34876;SDS011;21086;44.780;17.194;2023-06-22T01:01:52;7.80;;;4.80;;
34876;SDS011;21086;44.780;17.194;2023-06-22T01:04:19;7.50;;;4.75;;
34876;SDS011;21086;44.780;17.194;2023-06-22T01:07:03;6.97;;;4.53;;
34876;SDS011;21086;44.780;17.194;2023-06-22T01:12:46;7.07;;;4.70;;
34876;SDS011;21086;44.780;17.194;2023-06-22T01:15:22;5.85;;;4.30;;
34876;SDS011;21086;44.780;17.194;2023-06-22T01:17:54;5.28;;;4.65;;
34876;SDS011;21086;44.780;17.194;2023-06-22T01:20:24;9.40;;;4.53;;
34876;SDS011;21086;44.780;17.194;2023-06-22T01:26:14;6.28;;;4.47;;
34876;SDS011;21086;44.780;17.194;2023-06-22T01:28:50;6.78;;;4.38;;
34876;SDS011;21086;44.780;17.194;2023-06-22T01:31:20;6.28;;;4.60;;
34876;SDS011;21086;44.780;17.194;2023-06-22T01:33:51;6.22;;;4.55;;
34876;SDS011;21086;44.780;17.194;2023-06-22T01:36:21;10.27;;;4.50;;
34876;SDS011;21086;44.780;17.194;2023-06-22T01:38:50;7.38;;;4.40;;
34876;SDS011;21086;44.780;17.194;2023-06-22T01:41:19;7.47;;;4.60;;
34876;SDS011;21086;44.780;17.194;2023-06-22T01:43:47;8.50;;;4.60;;
34876;SDS011;21086;44.780;17.194;2023-06-22T01:46:15;6.03;;;4.30;;
34876;SDS011;21086;44.780;17.194;2023-06-22T01:48:46;7.13;;;4.35;;
34876;SDS011;21086;44.780;17.194;2023-06-22T01:51:14;6.20;;;4.85;;
34876;SDS011;21086;44.780;17.194;2023-06-22T01:53:42;6.43;;;4.65;;
34876;SDS011;21086;44.780;17.194;2023-06-22T01:56:09;6.05;;;5.18;;
34876;SDS011;21086;44.780;17.194;2023-06-22T01:58:36;5.50;;;4.90;;
34876;SDS011;21086;44.780;17.194;2023-06-22T02:01:09;6.60;;;4.93;;
34876;SDS011;21086;44.780;17.194;2023-06-22T02:03:41;9.82;;;4.70;;
34876;SDS011;21086;44.780;17.194;2023-06-22T02:06:16;7.43;;;4.65;;
34876;SDS011;21086;44.780;17.194;2023-06-22T02:08:48;7.85;;;4.40;;
34876;SDS011;21086;44.780;17.194;2023-06-22T02:11:21;7.28;;;5.40;;
34876;SDS011;21086;44.780;17.194;2023-06-22T02:13:48;8.35;;;4.45;;
34876;SDS011;21086;44.780;17.194;2023-06-22T02:16:17;6.50;;;4.60;;
34876;SDS011;21086;44.780;17.194;2023-06-22T02:18:46;7.45;;;4.95;;
34876;SDS011;21086;44.780;17.194;2023-06-22T02:21:14;6.68;;;4.93;;
34876;SDS011;21086;44.780;17.194;2023-06-22T02:23:41;6.90;;;4.68;;
34876;SDS011;21086;44.780;17.194;2023-06-22T02:26:07;7.03;;;4.78;;
34876;SDS011;21086;44.780;17.194;2023-06-22T02:28:35;7.63;;;5.30;;
34876;SDS011;21086;44.780;17.194;2023-06-22T02:31:02;6.88;;;5.50;;
34876;SDS011;21086;44.780;17.194;2023-06-22T02:33:29;4.90;;;4.40;;
34876;SDS011;21086;44.780;17.194;2023-06-22T02:35:56;6.75;;;4.43;;
34876;SDS011;21086;44.780;17.194;2023-06-22T02:38:23;7.55;;;5.20;;
34876;SDS011;21086;44.780;17.194;2023-06-22T02:40:50;6.25;;;4.80;;
34876;SDS011;21086;44.780;17.194;2023-06-22T02:43:18;8.65;;;4.65;;
34876;SDS011;21086;44.780;17.194;2023-06-22T02:45:45;7.28;;;4.60;;
34876;SDS011;21086;44.780;17.194;2023-06-22T02:48:12;7.70;;;4.80;;
34876;SDS011;21086;44.780;17.194;2023-06-22T02:50:39;5.78;;;4.40;;
34876;SDS011;21086;44.780;17.194;2023-06-22T02:53:06;7.15;;;4.68;;
34876;SDS011;21086;44.780;17.194;2023-06-22T02:55:33;10.50;;;4.70;;
34876;SDS011;21086;44.780;17.194;2023-06-22T02:58:00;4.88;;;4.18;;
34876;SDS011;21086;44.780;17.194;2023-06-22T03:00:31;6.93;;;4.82;;
34876;SDS011;21086;44.780;17.194;2023-06-22T03:02:59;7.60;;;4.82;;
34876;SDS011;21086;44.780;17.194;2023-06-22T03:05:26;6.70;;;4.65;;
34876;SDS011;21086;44.780;17.194;2023-06-22T03:07:53;7.38;;;4.82;;
34876;SDS011;21086;44.780;17.194;2023-06-22T03:10:20;6.13;;;4.78;;
34876;SDS011;21086;44.780;17.194;2023-06-22T03:12:48;8.45;;;5.55;;
34876;SDS011;21086;44.780;17.194;2023-06-22T03:15:16;5.63;;;4.70;;
34876;SDS011;21086;44.780;17.194;2023-06-22T03:17:44;7.10;;;5.55;;
34876;SDS011;21086;44.780;17.194;2023-06-22T03:20:12;6.75;;;5.00;;
34876;SDS011;21086;44.780;17.194;2023-06-22T03:22:39;6.45;;;4.72;;
34876;SDS011;21086;44.780;17.194;2023-06-22T03:25:09;7.18;;;4.63;;
34876;SDS011;21086;44.780;17.194;2023-06-22T03:27:36;7.63;;;5.32;;
34876;SDS011;21086;44.780;17.194;2023-06-22T03:30:04;6.18;;;4.70;;
34876;SDS011;21086;44.780;17.194;2023-06-22T03:32:33;6.72;;;4.78;;
34876;SDS011;21086;44.780;17.194;2023-06-22T03:35:01;10.30;;;4.60;;
34876;SDS011;21086;44.780;17.194;2023-06-22T03:37:29;7.45;;;4.75;;
34876;SDS011;21086;44.780;17.194;2023-06-22T03:39:56;9.20;;;5.28;;
34876;SDS011;21086;44.780;17.194;2023-06-22T03:42:23;10.68;;;5.22;;
34876;SDS011;21086;44.780;17.194;2023-06-22T03:44:50;12.52;;;5.28;;
34876;SDS011;21086;44.780;17.194;2023-06-22T03:47:17;5.80;;;4.93;;
34876;SDS011;21086;44.780;17.194;2023-06-22T03:49:44;6.65;;;4.90;;
34876;SDS011;21086;44.780;17.194;2023-06-22T03:52:12;4.95;;;4.43;;
34876;SDS011;21086;44.780;17.194;2023-06-22T03:54:39;8.80;;;4.75;;
34876;SDS011;21086;44.780;17.194;2023-06-22T03:57:06;5.30;;;4.80;;
34876;SDS011;21086;44.780;17.194;2023-06-22T03:59:33;9.90;;;4.95;;
34876;SDS011;21086;44.780;17.194;2023-06-22T04:02:00;7.95;;;5.20;;
34876;SDS011;21086;44.780;17.194;2023-06-22T04:04:27;5.72;;;5.10;;
34876;SDS011;21086;44.780;17.194;2023-06-22T04:06:55;7.10;;;4.82;;
34876;SDS011;21086;44.780;17.194;2023-06-22T04:09:22;9.38;;;5.30;;
34876;SDS011;21086;44.780;17.194;2023-06-22T04:11:50;7.80;;;5.00;;
34876;SDS011;21086;44.780;17.194;2023-06-22T04:14:17;5.90;;;4.78;;
34876;SDS011;21086;44.780;17.194;2023-06-22T04:16:44;6.70;;;4.60;;
34876;SDS011;21086;44.780;17.194;2023-06-22T04:19:11;8.43;;;4.88;;
34876;SDS011;21086;44.780;17.194;2023-06-22T04:21:43;8.75;;;4.82;;
34876;SDS011;21086;44.780;17.194;2023-06-22T04:24:15;5.40;;;4.60;;
34876;SDS011;21086;44.780;17.194;2023-06-22T04:26:42;8.65;;;4.57;;
34876;SDS011;21086;44.780;17.194;2023-06-22T04:29:11;7.00;;;4.72;;
34876;SDS011;21086;44.780;17.194;2023-06-22T04:31:39;6.20;;;4.95;;
34876;SDS011;21086;44.780;17.194;2023-06-22T04:34:08;8.15;;;4.88;;
34876;SDS011;21086;44.780;17.194;2023-06-22T04:36:39;5.03;;;4.47;;
34876;SDS011;21086;44.780;17.194;2023-06-22T04:39:08;7.90;;;4.75;;
34876;SDS011;21086;44.780;17.194;2023-06-22T04:41:39;6.47;;;4.60;;
34876;SDS011;21086;44.780;17.194;2023-06-22T04:46:38;7.88;;;4.90;;
34876;SDS011;21086;44.780;17.194;2023-06-22T04:49:08;5.90;;;4.53;;
34876;SDS011;21086;44.780;17.194;2023-06-22T04:51:37;7.43;;;4.80;;
34876;SDS011;21086;44.780;17.194;2023-06-22T04:54:08;8.55;;;4.57;;
34876;SDS011;21086;44.780;17.194;2023-06-22T04:56:36;6.05;;;4.25;;
34876;SDS011;21086;44.780;17.194;2023-06-22T04:59:03;5.70;;;4.93;;
34876;SDS011;21086;44.780;17.194;2023-06-22T05:01:30;6.63;;;4.78;;
34876;SDS011;21086;44.780;17.194;2023-06-22T05:03:58;6.13;;;4.13;;
34876;SDS011;21086;44.780;17.194;2023-06-22T05:06:28;6.20;;;4.43;;
34876;SDS011;21086;44.780;17.194;2023-06-22T05:08:55;5.07;;;4.13;;
34876;SDS011;21086;44.780;17.194;2023-06-22T05:11:26;7.82;;;4.00;;
34876;SDS011;21086;44.780;17.194;2023-06-22T05:13:56;7.22;;;4.30;;
34876;SDS011;21086;44.780;17.194;2023-06-22T05:16:23;8.13;;;4.30;;
34876;SDS011;21086;44.780;17.194;2023-06-22T05:18:51;11.57;;;4.88;;
34876;SDS011;21086;44.780;17.194;2023-06-22T05:21:23;7.85;;;4.72;;
34876;SDS011;21086;44.780;17.194;2023-06-22T05:23:55;5.35;;;3.97;;
34876;SDS011;21086;44.780;17.194;2023-06-22T05:26:26;8.18;;;4.18;;
34876;SDS011;21086;44.780;17.194;2023-06-22T05:28:54;6.53;;;4.43;;
34876;SDS011;21086;44.780;17.194;2023-06-22T05:31:21;8.00;;;4.95;;
34876;SDS011;21086;44.780;17.194;2023-06-22T05:33:49;9.10;;;4.63;;
34876;SDS011;21086;44.780;17.194;2023-06-22T05:36:18;7.10;;;4.68;;
34876;SDS011;21086;44.780;17.194;2023-06-22T05:38:56;7.93;;;4.10;;
34876;SDS011;21086;44.780;17.194;2023-06-22T05:41:23;11.25;;;4.57;;
34876;SDS011;21086;44.780;17.194;2023-06-22T05:43:50;7.70;;;4.50;;
34876;SDS011;21086;44.780;17.194;2023-06-22T05:46:18;8.15;;;4.60;;
34876;SDS011;21086;44.780;17.194;2023-06-22T05:48:45;7.85;;;4.18;;
34876;SDS011;21086;44.780;17.194;2023-06-22T05:51:12;8.75;;;4.22;;
34876;SDS011;21086;44.780;17.194;2023-06-22T05:53:39;7.22;;;4.05;;
34876;SDS011;21086;44.780;17.194;2023-06-22T05:56:06;9.20;;;4.63;;
34876;SDS011;21086;44.780;17.194;2023-06-22T05:58:34;12.02;;;6.75;;
34876;SDS011;21086;44.780;17.194;2023-06-22T06:01:02;12.23;;;7.25;;
34876;SDS011;21086;44.780;17.194;2023-06-22T06:03:29;9.50;;;6.07;;
34876;SDS011;21086;44.780;17.194;2023-06-22T06:05:56;11.73;;;6.88;;
34876;SDS011;21086;44.780;17.194;2023-06-22T06:08:23;12.38;;;6.55;;
34876;SDS011;21086;44.780;17.194;2023-06-22T06:10:50;8.13;;;5.90;;
34876;SDS011;21086;44.780;17.194;2023-06-22T06:13:19;11.23;;;6.65;;
34876;SDS011;21086;44.780;17.194;2023-06-22T06:15:46;8.82;;;5.65;;
34876;SDS011;21086;44.780;17.194;2023-06-22T06:18:14;9.70;;;5.32;;
34876;SDS011;21086;44.780;17.194;2023-06-22T06:20:41;10.32;;;6.03;;
34876;SDS011;21086;44.780;17.194;2023-06-22T06:23:08;9.95;;;5.95;;
34876;SDS011;21086;44.780;17.194;2023-06-22T06:25:35;10.98;;;5.32;;
34876;SDS011;21086;44.780;17.194;2023-06-22T06:28:02;7.95;;;5.55;;
34876;SDS011;21086;44.780;17.194;2023-06-22T06:30:29;9.68;;;5.63;;
34876;SDS011;21086;44.780;17.194;2023-06-22T06:32:57;9.68;;;5.68;;
34876;SDS011;21086;44.780;17.194;2023-06-22T06:35:24;10.45;;;5.20;;
34876;SDS011;21086;44.780;17.194;2023-06-22T06:37:52;9.80;;;5.68;;
34876;SDS011;21086;44.780;17.194;2023-06-22T06:40:19;8.93;;;5.35;;
34876;SDS011;21086;44.780;17.194;2023-06-22T06:42:47;8.75;;;5.35;;
34876;SDS011;21086;44.780;17.194;2023-06-22T06:45:16;9.63;;;4.90;;
34876;SDS011;21086;44.780;17.194;2023-06-22T06:47:44;6.13;;;4.32;;
34876;SDS011;21086;44.780;17.194;2023-06-22T06:50:13;6.60;;;4.82;;
34876;SDS011;21086;44.780;17.194;2023-06-22T06:52:41;6.05;;;3.97;;
34876;SDS011;21086;44.780;17.194;2023-06-22T06:55:08;9.63;;;4.18;;
34876;SDS011;21086;44.780;17.194;2023-06-22T06:57:41;8.85;;;4.40;;
34876;SDS011;21086;44.780;17.194;2023-06-22T07:00:10;6.90;;;4.15;;
34876;SDS011;21086;44.780;17.194;2023-06-22T07:02:44;6.55;;;4.50;;
34876;SDS011;21086;44.780;17.194;2023-06-22T07:05:14;8.10;;;4.88;;
34876;SDS011;21086;44.780;17.194;2023-06-22T07:07:41;8.43;;;4.53;;
34876;SDS011;21086;44.780;17.194;2023-06-22T07:10:09;5.35;;;3.85;;
34876;SDS011;21086;44.780;17.194;2023-06-22T07:12:37;7.03;;;4.35;;
34876;SDS011;21086;44.780;17.194;2023-06-22T07:15:04;6.18;;;4.63;;
34876;SDS011;21086;44.780;17.194;2023-06-22T07:17:35;5.90;;;4.47;;
34876;SDS011;21086;44.780;17.194;2023-06-22T07:20:03;5.28;;;3.95;;
34876;SDS011;21086;44.780;17.194;2023-06-22T07:22:39;6.60;;;4.00;;
34876;SDS011;21086;44.780;17.194;2023-06-22T07:25:09;8.52;;;4.80;;
34876;SDS011;21086;44.780;17.194;2023-06-22T07:27:45;8.32;;;4.07;;
34876;SDS011;21086;44.780;17.194;2023-06-22T07:30:22;6.60;;;4.38;;
34876;SDS011;21086;44.780;17.194;2023-06-22T07:32:49;8.32;;;4.72;;
34876;SDS011;21086;44.780;17.194;2023-06-22T07:35:17;8.50;;;4.43;;
34876;SDS011;21086;44.780;17.194;2023-06-22T07:37:44;7.25;;;4.00;;
34876;SDS011;21086;44.780;17.194;2023-06-22T07:40:11;7.95;;;4.88;;
34876;SDS011;21086;44.780;17.194;2023-06-22T07:42:38;9.13;;;4.63;;
34876;SDS011;21086;44.780;17.194;2023-06-22T07:45:06;6.72;;;4.43;;
34876;SDS011;21086;44.780;17.194;2023-06-22T07:47:34;9.93;;;4.85;;
34876;SDS011;21086;44.780;17.194;2023-06-22T07:50:02;9.30;;;4.30;;
34876;SDS011;21086;44.780;17.194;2023-06-22T07:52:30;7.68;;;4.00;;
34876;SDS011;21086;44.780;17.194;2023-06-22T07:54:58;6.72;;;4.15;;
34876;SDS011;21086;44.780;17.194;2023-06-22T07:57:25;7.07;;;4.10;;
34876;SDS011;21086;44.780;17.194;2023-06-22T08:00:00;7.78;;;3.78;;
34876;SDS011;21086;44.780;17.194;2023-06-22T08:02:49;8.55;;;4.40;;
34876;SDS011;21086;44.780;17.194;2023-06-22T08:05:17;6.18;;;4.30;;
34876;SDS011;21086;44.780;17.194;2023-06-22T08:07:48;9.85;;;4.75;;
34876;SDS011;21086;44.780;17.194;2023-06-22T08:10:15;8.45;;;3.95;;
34876;SDS011;21086;44.780;17.194;2023-06-22T08:12:42;10.23;;;4.30;;
34876;SDS011;21086;44.780;17.194;2023-06-22T08:15:10;5.95;;;3.42;;
34876;SDS011;21086;44.780;17.194;2023-06-22T08:17:37;7.35;;;3.92;;
34876;SDS011;21086;44.780;17.194;2023-06-22T08:20:06;8.48;;;4.03;;
34876;SDS011;21086;44.780;17.194;2023-06-22T08:22:40;7.95;;;3.78;;
34876;SDS011;21086;44.780;17.194;2023-06-22T08:25:08;7.15;;;3.80;;
34876;SDS011;21086;44.780;17.194;2023-06-22T08:27:36;10.63;;;4.28;;
34876;SDS011;21086;44.780;17.194;2023-06-22T08:30:03;6.18;;;3.08;;
34876;SDS011;21086;44.780;17.194;2023-06-22T08:32:31;6.90;;;3.75;;
34876;SDS011;21086;44.780;17.194;2023-06-22T08:35:01;4.97;;;3.45;;
34876;SDS011;21086;44.780;17.194;2023-06-22T08:37:28;7.78;;;3.25;;
34876;SDS011;21086;44.780;17.194;2023-06-22T08:40:03;10.57;;;3.78;;
34876;SDS011;21086;44.780;17.194;2023-06-22T08:42:36;7.13;;;3.65;;
34876;SDS011;21086;44.780;17.194;2023-06-22T08:45:04;6.05;;;3.60;;
34876;SDS011;21086;44.780;17.194;2023-06-22T08:47:32;5.80;;;3.63;;
34876;SDS011;21086;44.780;17.194;2023-06-22T08:49:59;10.18;;;3.75;;
34876;SDS011;21086;44.780;17.194;2023-06-22T08:52:29;6.18;;;3.90;;
34876;SDS011;21086;44.780;17.194;2023-06-22T08:54:56;6.95;;;3.50;;
34876;SDS011;21086;44.780;17.194;2023-06-22T08:57:25;8.57;;;4.13;;
34876;SDS011;21086;44.780;17.194;2023-06-22T08:59:52;6.55;;;3.55;;
34876;SDS011;21086;44.780;17.194;2023-06-22T09:02:19;5.60;;;3.50;;
34876;SDS011;21086;44.780;17.194;2023-06-22T09:04:47;5.85;;;3.55;;
34876;SDS011;21086;44.780;17.194;2023-06-22T09:07:15;8.75;;;4.10;;
34876;SDS011;21086;44.780;17.194;2023-06-22T09:09:49;9.65;;;3.67;;
34876;SDS011;21086;44.780;17.194;2023-06-22T09:12:16;6.25;;;3.05;;
34876;SDS011;21086;44.780;17.194;2023-06-22T09:14:46;6.28;;;3.65;;
34876;SDS011;21086;44.780;17.194;2023-06-22T09:17:13;4.80;;;3.28;;
34876;SDS011;21086;44.780;17.194;2023-06-22T09:19:40;6.47;;;3.50;;
34876;SDS011;21086;44.780;17.194;2023-06-22T09:22:07;9.07;;;4.05;;
34876;SDS011;21086;44.780;17.194;2023-06-22T09:24:34;6.85;;;3.33;;
34876;SDS011;21086;44.780;17.194;2023-06-22T09:27:01;5.60;;;3.78;;
34876;SDS011;21086;44.780;17.194;2023-06-22T09:29:29;7.07;;;3.58;;
34876;SDS011;21086;44.780;17.194;2023-06-22T09:31:59;5.20;;;3.40;;
34876;SDS011;21086;44.780;17.194;2023-06-22T09:34:27;5.45;;;3.60;;
34876;SDS011;21086;44.780;17.194;2023-06-22T09:36:54;9.45;;;3.50;;
34876;SDS011;21086;44.780;17.194;2023-06-22T09:39:24;6.35;;;3.78;;
34876;SDS011;21086;44.780;17.194;2023-06-22T09:41:51;12.90;;;4.30;;
34876;SDS011;21086;44.780;17.194;2023-06-22T09:44:18;9.13;;;4.18;;
34876;SDS011;21086;44.780;17.194;2023-06-22T09:46:45;5.50;;;3.53;;
34876;SDS011;21086;44.780;17.194;2023-06-22T09:49:12;5.25;;;3.55;;
34876;SDS011;21086;44.780;17.194;2023-06-22T09:51:39;9.35;;;3.40;;
34876;SDS011;21086;44.780;17.194;2023-06-22T09:54:06;8.18;;;3.55;;
34876;SDS011;21086;44.780;17.194;2023-06-22T09:56:33;5.72;;;3.83;;
34876;SDS011;21086;44.780;17.194;2023-06-22T09:59:00;6.95;;;3.90;;
34876;SDS011;21086;44.780;17.194;2023-06-22T10:01:43;4.30;;;3.72;;
34876;SDS011;21086;44.780;17.194;2023-06-22T10:04:10;5.05;;;3.13;;
34876;SDS011;21086;44.780;17.194;2023-06-22T10:06:38;8.88;;;3.55;;
34876;SDS011;21086;44.780;17.194;2023-06-22T10:09:07;5.15;;;3.30;;
34876;SDS011;21086;44.780;17.194;2023-06-22T10:11:34;7.20;;;3.95;;
34876;SDS011;21086;44.780;17.194;2023-06-22T10:14:03;10.57;;;3.35;;
34876;SDS011;21086;44.780;17.194;2023-06-22T10:16:30;7.45;;;4.07;;
34876;SDS011;21086;44.780;17.194;2023-06-22T10:18:58;3.80;;;3.17;;
34876;SDS011;21086;44.780;17.194;2023-06-22T10:21:25;6.40;;;3.33;;
34876;SDS011;21086;44.780;17.194;2023-06-22T10:23:54;5.40;;;3.28;;
34876;SDS011;21086;44.780;17.194;2023-06-22T10:26:22;6.13;;;2.95;;
34876;SDS011;21086;44.780;17.194;2023-06-22T10:28:49;5.90;;;3.25;;
34876;SDS011;21086;44.780;17.194;2023-06-22T10:31:32;6.63;;;3.75;;
34876;SDS011;21086;44.780;17.194;2023-06-22T10:34:00;5.93;;;3.45;;
34876;SDS011;21086;44.780;17.194;2023-06-22T10:36:27;8.45;;;3.67;;
34876;SDS011;21086;44.780;17.194;2023-06-22T10:38:54;6.50;;;3.35;;
34876;SDS011;21086;44.780;17.194;2023-06-22T10:41:22;7.00;;;3.33;;
34876;SDS011;21086;44.780;17.194;2023-06-22T10:43:49;6.68;;;2.75;;
34876;SDS011;21086;44.780;17.194;2023-06-22T10:46:16;5.75;;;3.15;;
34876;SDS011;21086;44.780;17.194;2023-06-22T10:48:43;4.60;;;3.35;;
34876;SDS011;21086;44.780;17.194;2023-06-22T10:51:10;4.60;;;3.40;;
34876;SDS011;21086;44.780;17.194;2023-06-22T10:53:37;8.10;;;3.95;;
34876;SDS011;21086;44.780;17.194;2023-06-22T10:56:04;4.97;;;2.65;;
34876;SDS011;21086;44.780;17.194;2023-06-22T10:58:31;4.13;;;3.03;;
34876;SDS011;21086;44.780;17.194;2023-06-22T11:00:58;5.55;;;3.13;;
34876;SDS011;21086;44.780;17.194;2023-06-22T11:03:25;6.78;;;3.22;;
34876;SDS011;21086;44.780;17.194;2023-06-22T11:05:52;7.15;;;3.13;;
34876;SDS011;21086;44.780;17.194;2023-06-22T11:08:19;5.78;;;3.55;;
34876;SDS011;21086;44.780;17.194;2023-06-22T11:10:46;6.72;;;3.38;;
34876;SDS011;21086;44.780;17.194;2023-06-22T11:13:13;7.55;;;3.58;;
34876;SDS011;21086;44.780;17.194;2023-06-22T11:15:40;9.38;;;3.60;;
34876;SDS011;21086;44.780;17.194;2023-06-22T11:18:07;9.07;;;3.70;;
34876;SDS011;21086;44.780;17.194;2023-06-22T11:20:34;6.22;;;3.30;;
34876;SDS011;21086;44.780;17.194;2023-06-22T11:23:05;7.32;;;4.05;;
34876;SDS011;21086;44.780;17.194;2023-06-22T11:25:33;5.75;;;3.10;;
34876;SDS011;21086;44.780;17.194;2023-06-22T11:28:04;8.30;;;3.50;;
34876;SDS011;21086;44.780;17.194;2023-06-22T11:30:31;6.03;;;3.50;;
34876;SDS011;21086;44.780;17.194;2023-06-22T11:32:58;6.38;;;3.50;;
34876;SDS011;21086;44.780;17.194;2023-06-22T11:35:26;6.72;;;3.25;;
34876;SDS011;21086;44.780;17.194;2023-06-22T11:37:53;6.28;;;4.00;;
34876;SDS011;21086;44.780;17.194;2023-06-22T11:40:20;5.95;;;3.20;;
34876;SDS011;21086;44.780;17.194;2023-06-22T11:42:47;6.47;;;3.65;;
34876;SDS011;21086;44.780;17.194;2023-06-22T11:45:14;10.60;;;3.78;;
34876;SDS011;21086;44.780;17.194;2023-06-22T11:47:43;8.93;;;3.75;;
34876;SDS011;21086;44.780;17.194;2023-06-22T11:50:10;5.93;;;3.33;;
34876;SDS011;21086;44.780;17.194;2023-06-22T11:52:37;7.07;;;3.65;;
34876;SDS011;21086;44.780;17.194;2023-06-22T11:55:04;8.77;;;3.72;;
34876;SDS011;21086;44.780;17.194;2023-06-22T11:57:33;4.95;;;3.25;;
34876;SDS011;21086;44.780;17.194;2023-06-22T12:00:02;6.40;;;3.30;;
34876;SDS011;21086;44.780;17.194;2023-06-22T12:02:41;9.55;;;3.53;;
34876;SDS011;21086;44.780;17.194;2023-06-22T12:05:08;8.93;;;3.70;;
34876;SDS011;21086;44.780;17.194;2023-06-22T12:07:35;9.38;;;3.40;;
34876;SDS011;21086;44.780;17.194;2023-06-22T12:10:02;5.38;;;3.33;;
34876;SDS011;21086;44.780;17.194;2023-06-22T12:12:29;6.07;;;3.15;;
34876;SDS011;21086;44.780;17.194;2023-06-22T12:14:56;9.80;;;3.35;;
34876;SDS011;21086;44.780;17.194;2023-06-22T12:17:23;8.25;;;3.80;;
34876;SDS011;21086;44.780;17.194;2023-06-22T12:19:51;7.88;;;4.13;;
34876;SDS011;21086;44.780;17.194;2023-06-22T12:22:18;6.88;;;3.30;;
34876;SDS011;21086;44.780;17.194;2023-06-22T12:24:45;6.20;;;3.10;;
34876;SDS011;21086;44.780;17.194;2023-06-22T12:27:12;5.93;;;3.40;;
34876;SDS011;21086;44.780;17.194;2023-06-22T12:29:42;4.70;;;3.10;;
34876;SDS011;21086;44.780;17.194;2023-06-22T12:32:09;9.77;;;3.28;;
34876;SDS011;21086;44.780;17.194;2023-06-22T12:34:39;8.13;;;3.45;;
34876;SDS011;21086;44.780;17.194;2023-06-22T12:37:08;5.50;;;3.60;;
34876;SDS011;21086;44.780;17.194;2023-06-22T12:39:35;8.15;;;3.10;;
34876;SDS011;21086;44.780;17.194;2023-06-22T12:42:03;6.40;;;3.53;;
34876;SDS011;21086;44.780;17.194;2023-06-22T12:44:30;7.28;;;3.75;;
34876;SDS011;21086;44.780;17.194;2023-06-22T12:46:57;6.88;;;3.58;;
34876;SDS011;21086;44.780;17.194;2023-06-22T12:49:24;6.22;;;3.05;;
34876;SDS011;21086;44.780;17.194;2023-06-22T12:51:51;6.15;;;3.38;;
34876;SDS011;21086;44.780;17.194;2023-06-22T12:54:18;9.50;;;3.35;;
34876;SDS011;21086;44.780;17.194;2023-06-22T12:56:45;6.97;;;3.22;;
34876;SDS011;21086;44.780;17.194;2023-06-22T12:59:14;8.02;;;3.53;;
34876;SDS011;21086;44.780;17.194;2023-06-22T13:01:41;5.28;;;2.83;;
34876;SDS011;21086;44.780;17.194;2023-06-22T13:04:10;4.68;;;3.00;;
34876;SDS011;21086;44.780;17.194;2023-06-22T13:06:40;6.82;;;3.25;;
34876;SDS011;21086;44.780;17.194;2023-06-22T13:09:08;9.70;;;3.72;;
34876;SDS011;21086;44.780;17.194;2023-06-22T13:11:46;5.53;;;3.40;;
34876;SDS011;21086;44.780;17.194;2023-06-22T13:14:13;6.38;;;3.38;;
34876;SDS011;21086;44.780;17.194;2023-06-22T13:16:42;4.78;;;3.28;;
34876;SDS011;21086;44.780;17.194;2023-06-22T13:19:09;7.47;;;3.60;;
34876;SDS011;21086;44.780;17.194;2023-06-22T13:21:36;5.85;;;3.38;;
34876;SDS011;21086;44.780;17.194;2023-06-22T13:24:03;6.15;;;3.60;;
34876;SDS011;21086;44.780;17.194;2023-06-22T13:26:32;6.50;;;3.38;;
34876;SDS011;21086;44.780;17.194;2023-06-22T13:29:00;8.85;;;3.25;;
34876;SDS011;21086;44.780;17.194;2023-06-22T13:31:27;5.45;;;3.55;;
34876;SDS011;21086;44.780;17.194;2023-06-22T13:33:54;6.07;;;3.10;;
34876;SDS011;21086;44.780;17.194;2023-06-22T13:36:22;9.30;;;3.13;;
34876;SDS011;21086;44.780;17.194;2023-06-22T13:38:49;8.48;;;3.65;;
34876;SDS011;21086;44.780;17.194;2023-06-22T13:41:16;7.13;;;3.55;;
34876;SDS011;21086;44.780;17.194;2023-06-22T13:43:43;8.30;;;3.50;;
34876;SDS011;21086;44.780;17.194;2023-06-22T13:46:10;5.85;;;2.90;;
34876;SDS011;21086;44.780;17.194;2023-06-22T13:48:37;5.32;;;3.20;;
34876;SDS011;21086;44.780;17.194;2023-06-22T13:51:04;4.65;;;2.90;;
34876;SDS011;21086;44.780;17.194;2023-06-22T13:53:31;4.55;;;2.70;;
34876;SDS011;21086;44.780;17.194;2023-06-22T13:55:58;5.75;;;3.00;;
34876;SDS011;21086;44.780;17.194;2023-06-22T13:58:26;6.80;;;3.60;;
34876;SDS011;21086;44.780;17.194;2023-06-22T14:00:53;7.03;;;3.05;;
34876;SDS011;21086;44.780;17.194;2023-06-22T14:03:22;7.05;;;3.00;;
34876;SDS011;21086;44.780;17.194;2023-06-22T14:05:49;5.18;;;2.90;;
34876;SDS011;21086;44.780;17.194;2023-06-22T14:08:16;7.68;;;2.80;;
34876;SDS011;21086;44.780;17.194;2023-06-22T14:11:03;4.72;;;2.90;;
34876;SDS011;21086;44.780;17.194;2023-06-22T14:13:30;9.98;;;2.88;;
34876;SDS011;21086;44.780;17.194;2023-06-22T14:15:58;5.60;;;2.55;;
34876;SDS011;21086;44.780;17.194;2023-06-22T14:18:24;6.32;;;2.55;;
34876;SDS011;21086;44.780;17.194;2023-06-22T14:20:51;6.80;;;2.50;;
34876;SDS011;21086;44.780;17.194;2023-06-22T14:23:21;6.72;;;2.75;;
34876;SDS011;21086;44.780;17.194;2023-06-22T14:25:48;7.93;;;2.83;;
34876;SDS011;21086;44.780;17.194;2023-06-22T14:28:15;6.55;;;2.92;;
34876;SDS011;21086;44.780;17.194;2023-06-22T14:30:43;5.53;;;2.78;;
34876;SDS011;21086;44.780;17.194;2023-06-22T14:33:10;7.28;;;2.90;;
34876;SDS011;21086;44.780;17.194;2023-06-22T14:35:38;3.53;;;2.63;;
34876;SDS011;21086;44.780;17.194;2023-06-22T14:38:05;6.78;;;2.80;;
34876;SDS011;21086;44.780;17.194;2023-06-22T14:40:32;5.40;;;2.78;;
34876;SDS011;21086;44.780;17.194;2023-06-22T14:43:18;4.38;;;2.30;;
34876;SDS011;21086;44.780;17.194;2023-06-22T14:45:45;6.32;;;2.60;;
34876;SDS011;21086;44.780;17.194;2023-06-22T14:48:13;5.72;;;2.55;;